createdAt,value
2023-04-18T00:04:09.781Z,0.97
2023-04-18T00:09:24.904Z,0.94
2023-04-18T00:14:40.956Z,0.94
2023-04-18T00:19:57.666Z,0.96
2023-04-18T00:25:15.792Z,0.99
2023-04-18T01:02:07.840Z,0.86
2023-04-18T01:07:22.806Z,0.88
2023-04-18T01:12:38.909Z,0.91
2023-04-18T01:17:55.919Z,0.83
2023-04-18T02:00:16.245Z,0.83
2023-04-18T02:05:25.838Z,0.75
2023-04-18T02:10:42.771Z,0.75
2023-04-18T02:15:59.601Z,0.75
2023-04-18T02:21:15.975Z,0.74
2023-04-18T02:26:32.125Z,0.74
2023-04-18T02:31:48.433Z,0.8
2023-04-18T02:37:05.312Z,0.83
2023-04-18T02:42:21.077Z,0.78
2023-04-18T02:47:57.184Z,0.81
2023-04-18T02:52:54.396Z,0.74
2023-04-18T02:58:10.786Z,0.76
2023-04-18T03:03:28.097Z,0.81
2023-04-18T03:08:43.555Z,0.87
2023-04-18T03:13:19.500Z,0.72
2023-04-18T03:18:36.386Z,0.81
2023-04-18T03:23:51.659Z,0.82
2023-04-18T03:29:07.983Z,0.77
2023-04-18T03:34:23.554Z,0.83
2023-04-18T03:39:40.466Z,0.85
2023-04-18T03:44:56.959Z,0.86
2023-04-18T03:50:13.970Z,0.98
2023-04-18T03:55:29.985Z,0.87
2023-04-18T04:00:46.956Z,0.88
2023-04-18T04:06:03.716Z,0.9
2023-04-18T04:11:19.376Z,0.87
2023-04-18T04:16:36.582Z,0.9
2023-04-18T04:21:53.001Z,0.98
2023-04-18T04:27:10.073Z,0.93
2023-04-18T04:32:26.343Z,0.94
2023-04-18T04:37:43.214Z,0.97
2023-04-18T04:42:59.433Z,1.07
2023-04-18T04:48:16.800Z,1.16
2023-04-18T04:53:32.959Z,1.15
2023-04-18T04:58:50.207Z,1.35
2023-04-18T05:04:06.926Z,1.22
2023-04-18T05:09:22.702Z,1.14
2023-04-18T05:14:40.292Z,1.32
2023-04-18T05:19:57.438Z,1.12
2023-04-18T05:25:12.921Z,1.1
2023-04-18T06:07:35.948Z,1
2023-04-18T06:12:45.939Z,1.2
2023-04-18T06:18:03.504Z,1.25
2023-04-18T06:23:20.486Z,1.33
2023-04-18T06:28:35.804Z,1.06
2023-04-18T06:33:51.413Z,1.26
2023-04-18T06:39:08.651Z,1.17
2023-04-18T06:44:25.606Z,1.34
2023-04-18T06:49:44.284Z,1.35
2023-04-18T06:55:02.274Z,1.3
2023-04-18T07:00:17.379Z,1.2
2023-04-18T07:05:32.719Z,1.39
2023-04-18T07:10:48.480Z,1.37
2023-04-18T07:16:04.636Z,1.53
2023-04-18T07:21:20.810Z,1.55
2023-04-18T07:26:38.295Z,1.27
2023-04-18T07:31:55.629Z,1.51
2023-04-18T07:37:15.510Z,1.58
2023-04-18T07:42:27.844Z,1.59
2023-04-18T07:47:44.956Z,1.47
2023-04-18T07:53:02.866Z,1.48
2023-04-18T07:58:19.786Z,1.41
2023-04-18T08:03:37.593Z,1.23
2023-04-18T08:08:52.064Z,1.31
2023-04-18T08:14:07.502Z,1.41
2023-04-18T08:19:23.207Z,1.32
2023-04-18T08:24:39.201Z,1.35
2023-04-18T08:29:55.444Z,1.24
2023-04-18T08:35:12.336Z,1.17
2023-04-18T08:40:28.140Z,1.74
2023-04-18T08:45:45.228Z,1.5
2023-04-18T08:51:02.097Z,1.38
2023-04-18T08:56:18.398Z,1.43
2023-04-18T09:01:35.731Z,1.26
2023-04-18T09:06:53.494Z,1.65
2023-04-18T09:49:11.638Z,1.61
2023-04-18T09:54:23.546Z,1.78
2023-04-18T09:59:39.520Z,1.33
2023-04-18T10:04:56.862Z,1.7
2023-04-18T10:10:13.276Z,2.34
2023-04-18T10:15:32.922Z,2.35
2023-04-18T10:20:48.215Z,1.79
2023-04-18T10:26:05.141Z,1.81
2023-04-18T10:31:22.890Z,1.73
2023-04-18T10:36:37.143Z,1.54
2023-04-18T10:41:53.523Z,1.46
2023-04-18T10:47:11.802Z,1.61
2023-04-18T10:52:29.112Z,1.65
2023-04-18T10:57:45.264Z,1.59
2023-04-18T11:03:03.755Z,2.13
2023-04-18T11:08:19.419Z,2.37
2023-04-18T11:13:34.794Z,1.91
2023-04-18T11:18:50.470Z,1.61
2023-04-18T11:24:06.406Z,1.58
2023-04-18T11:29:22.389Z,1.77
2023-04-18T11:34:37.679Z,1.78
2023-04-18T11:39:54.596Z,1.64
2023-04-18T11:45:13.174Z,1.61
2023-04-18T11:50:29.755Z,1.69
2023-04-18T11:55:45.348Z,1.97
2023-04-18T12:01:02.027Z,1.53
2023-04-18T12:06:19.964Z,1.66
2023-04-18T12:11:35.282Z,1.75
2023-04-18T12:16:52.669Z,1.8
2023-04-18T12:22:09.918Z,1.53
2023-04-18T12:27:26.673Z,1.79
2023-04-18T12:32:43.127Z,1.46
2023-04-18T13:25:26.026Z,2.67
2023-04-18T13:30:42.827Z,1.9
2023-04-18T13:35:59.625Z,1.61
2023-04-18T13:41:17.600Z,1.53
2023-04-18T13:46:34.034Z,1.52
2023-04-18T13:51:49.735Z,1.45
2023-04-18T13:57:06.160Z,1.41
2023-04-18T14:02:24.084Z,1.59
2023-04-18T14:07:38.887Z,1.57
2023-04-18T14:12:55.034Z,1.46
2023-04-18T14:18:12.279Z,1.53
2023-04-18T14:23:28.030Z,1.51
2023-04-18T14:28:45.020Z,1.58
2023-04-18T14:34:01.791Z,1.5
2023-04-18T14:39:18.010Z,1.59
2023-04-18T14:44:34.450Z,1.58
2023-04-18T14:49:50.957Z,1.51
2023-04-18T14:55:06.254Z,1.51
2023-04-18T15:00:22.534Z,1.54
2023-04-18T15:05:38.595Z,1.59
2023-04-18T15:10:54.437Z,1.42
2023-04-18T15:16:09.906Z,1.5
2023-04-18T15:21:26.791Z,1.47
2023-04-18T15:26:43.442Z,1.53
2023-04-18T15:32:01.234Z,1.4
2023-04-18T15:37:18.252Z,1.46
2023-04-18T15:42:35.124Z,1.54
2023-04-18T15:47:53.694Z,1.48
2023-04-18T15:53:08.739Z,1.38
2023-04-18T15:58:24.874Z,1.5
2023-04-18T16:03:42.306Z,1.45
2023-04-18T16:08:58.242Z,1.43
2023-04-18T16:14:15.996Z,1.49
2023-04-18T16:19:30.757Z,1.44
2023-04-18T16:24:48.673Z,1.5
2023-04-18T16:30:05.531Z,1.5
2023-04-18T17:12:26.493Z,1.57
2023-04-18T17:17:36.331Z,1.48
2023-04-18T17:22:52.416Z,1.49
2023-04-18T17:28:08.940Z,1.65
2023-04-18T17:33:27.747Z,1.39
2023-04-18T17:38:43.844Z,1.45
2023-04-18T17:43:59.654Z,1.54
2023-04-18T17:49:16.950Z,1.52
2023-04-18T17:54:33.439Z,1.45
2023-04-18T17:59:49.770Z,1.53
2023-04-18T18:05:06.832Z,1.41
2023-04-18T18:10:24.614Z,1.46
2023-04-18T18:15:41.703Z,1.44
2023-04-18T18:20:58.446Z,1.51
2023-04-18T18:26:15.275Z,1.45
2023-04-18T18:31:32.863Z,1.39
2023-04-18T18:36:49.424Z,1.49
2023-04-18T18:42:06.326Z,1.47
2023-04-18T18:47:22.674Z,1.57
2023-04-18T18:52:39.432Z,1.49
2023-04-18T18:57:55.859Z,1.57
2023-04-18T19:03:11.993Z,1.56
2023-04-18T19:08:27.218Z,1.4
2023-04-18T19:13:43.832Z,1.49
2023-04-18T19:18:59.983Z,1.45
2023-04-18T19:24:16.866Z,1.55
2023-04-18T19:29:34.533Z,1.4
2023-04-18T19:34:51.112Z,1.46
2023-04-18T19:40:09.574Z,1.42
2023-04-18T19:45:25.398Z,1.71
2023-04-18T19:50:43.198Z,1.53
2023-04-18T19:56:00.299Z,1.55
2023-04-18T20:01:19.705Z,1.57
2023-04-18T20:06:36.236Z,1.37
2023-04-18T20:48:58.474Z,1.39
2023-04-18T20:54:08.268Z,1.34
2023-04-18T20:59:24.396Z,1.35
2023-04-18T21:04:42.618Z,1.32
2023-04-18T21:09:58.553Z,1.3
2023-04-18T21:15:15.192Z,1.42
2023-04-18T21:20:30.711Z,1.39
2023-04-18T21:25:49.542Z,1.37
2023-04-18T21:31:05.876Z,1.42
2023-04-18T21:36:21.594Z,1.44
2023-04-18T21:41:38.811Z,1.45
2023-04-18T21:46:54.590Z,1.35
2023-04-18T21:52:10.388Z,1.41
2023-04-18T21:57:26.394Z,1.34
2023-04-18T22:02:43.389Z,1.29
2023-04-18T22:07:59.613Z,1.45
2023-04-18T22:13:15.804Z,1.43
2023-04-18T22:18:31.027Z,1.57
2023-04-18T22:23:47.722Z,1.36
2023-04-18T22:29:03.350Z,1.32
2023-04-18T22:34:19.360Z,1.63
2023-04-18T22:39:35.817Z,1.36
2023-04-18T22:44:52.751Z,1.45
2023-04-18T22:50:09.005Z,1.35
2023-04-18T22:55:25.431Z,2.04
2023-04-18T23:00:42.251Z,1.48
2023-04-18T23:05:57.761Z,1.47
2023-04-18T23:11:13.575Z,1.5
2023-04-18T23:16:30.117Z,1.47
2023-04-18T23:21:50.073Z,1.7
2023-04-18T23:27:03.920Z,1.42
2023-04-18T23:32:21.136Z,1.51
2023-04-18T23:37:36.360Z,1.5
2023-04-18T23:42:52.278Z,1.85
2023-04-18T23:48:09.401Z,1.77
